Georgetown, Georgia
Current Conditions -  °F | °C
As of 6:58 PM on Monday 24 Nov 2014 (Local Time) from KEUF Reporting Station
Few Clouds Few Clouds  
Wind Chill: 66°   Ceiling: Unl
Heat Index: 66°   Visibility: 10mi
Dew Point: 59°   Wind: 5mph
Humidity: 78%   Direction: 10°N
Pressure: 29.88"   Gusts: NA
Location:  31.88°N, 85.11°W
Report Text: KEUF 242358Z AUTO 01004KT 10SM FEW055 19/15 A2988 RMK AO2 SLP115 60000 T01890150 10283 20172 53025
Loading
Personal Weather Stations






























Interactive Weather Map New forecast layout! Learn more

10-Day Weather Forecast

Advertisements
Track Severe Weather on mobile